Standish, Michigan
Current Conditions -  °F | °C
As of 7:11 AM on Thursday 23 Oct 2014 (Local Time) from KIKW Reporting Station
Light Snow Light Snow  
Wind Chill: 28°   Ceiling: 100
Heat Index: 28°   Visibility: 0.25mi
Dew Point: 28°   Wind: 0mph
Humidity: 100%   Direction: NA
Pressure: 30.25"   Gusts: NA
Location:  43.98°N, 83.96°W
Report Text: KIKW 231111Z AUTO 00000KT 1/4SM -SN OVC001 M02/M02 A3025 RMK AO2 T10251025
Loading
Personal Weather Stations






























Interactive Weather Map New forecast layout! Learn more

10-Day Weather Forecast

Advertisements
Track Severe Weather on mobile